createdAt,value
2022-08-29T00:01:02.092Z,101674.66
2022-08-29T00:03:31.438Z,101669.75
2022-08-29T00:06:01.262Z,101672.13
2022-08-29T00:08:30.666Z,101668.50
2022-08-29T00:11:01.070Z,101666.53
2022-08-29T00:13:30.515Z,101667.09
2022-08-29T00:15:59.647Z,101674.66
2022-08-29T00:18:29.445Z,101675.41
2022-08-29T00:20:58.602Z,101674.28
2022-08-29T00:23:27.854Z,101680.13
2022-08-29T00:25:57.296Z,101678.16
2022-08-29T00:28:27.897Z,101677.53
2022-08-29T00:30:57.133Z,101684.69
2022-08-29T00:33:26.383Z,101689.44
2022-08-29T00:35:55.723Z,101687.88
2022-08-29T00:38:27.851Z,101692.31
2022-08-29T00:40:58.700Z,101686.81
2022-08-29T00:43:31.506Z,101689.16
2022-08-29T00:46:12.093Z,101685.13
2022-08-29T00:48:42.309Z,101685.50
2022-08-29T00:51:17.988Z,101684.38
2022-08-29T00:53:53.917Z,101688.84
2022-08-29T00:56:23.610Z,101682.25
2022-08-29T00:58:58.700Z,101690.22
2022-08-29T01:01:28.034Z,101694.81
2022-08-29T01:03:57.807Z,101686.94
2022-08-29T01:06:28.521Z,101687.09
2022-08-29T01:08:58.201Z,101689.00
2022-08-29T01:11:47.734Z,101688.53
2022-08-29T01:14:19.632Z,101685.03
2022-08-29T01:16:50.009Z,101692.84
2022-08-29T01:19:30.896Z,101691.88
2022-08-29T01:22:10.428Z,101694.66
2022-08-29T01:24:45.845Z,101692.47
2022-08-29T01:27:15.237Z,101698.28
2022-08-29T01:29:45.240Z,101690.13
2022-08-29T01:32:15.484Z,101687.91
2022-08-29T01:34:45.570Z,101687.06
2022-08-29T01:37:17.454Z,101694.34
2022-08-29T01:39:48.118Z,101688.09
2022-08-29T01:42:21.425Z,101692.38
2022-08-29T01:44:52.574Z,101692.53
2022-08-29T01:47:23.001Z,101695.78
2022-08-29T01:49:52.882Z,101703.97
2022-08-29T01:52:22.355Z,101699.47
2022-08-29T01:54:52.873Z,101711.63
2022-08-29T01:57:21.951Z,101709.28
2022-08-29T01:59:51.680Z,101709.94
2022-08-29T02:02:24.068Z,101706.47
2022-08-29T02:04:53.540Z,101713.88
2022-08-29T02:07:25.516Z,101705.53
2022-08-29T02:09:56.171Z,101707.59
2022-08-29T02:12:26.244Z,101699.97
2022-08-29T02:14:55.768Z,101705.25
2022-08-29T02:17:25.495Z,101697.53
2022-08-29T02:19:54.569Z,101698.59
2022-08-29T02:22:23.620Z,101700.50
2022-08-29T02:24:52.693Z,101703.41
2022-08-29T02:27:23.054Z,101695.63
2022-08-29T02:29:53.044Z,101690.25
2022-08-29T02:32:22.190Z,101695.72
2022-08-29T02:34:51.735Z,101692.38
2022-08-29T02:37:20.757Z,101690.97
2022-08-29T02:39:49.883Z,101696.59
2022-08-29T02:42:18.914Z,101694.66
2022-08-29T02:44:49.357Z,101695.19
2022-08-29T02:47:18.613Z,101696.59
2022-08-29T02:49:47.615Z,101696.84
2022-08-29T02:52:17.838Z,101700.31
2022-08-29T02:54:47.573Z,101686.81
2022-08-29T02:57:16.775Z,101694.66
2022-08-29T02:59:45.867Z,101686.94
2022-08-29T03:02:16.332Z,101683.06
2022-08-29T03:04:45.519Z,101687.16
2022-08-29T03:07:14.667Z,101687.34
2022-08-29T03:09:43.789Z,101689.13
2022-08-29T03:12:12.805Z,101680.94
2022-08-29T03:14:41.889Z,101683.22
2022-08-29T03:17:10.968Z,101692.03
2022-08-29T03:19:41.903Z,101687.25
2022-08-29T03:22:10.964Z,101688.97
2022-08-29T03:24:40.112Z,101694.88
2022-08-29T03:27:09.212Z,101688.19
2022-08-29T03:29:38.722Z,101695.00
2022-08-29T03:32:08.327Z,101700.84
2022-08-29T03:34:38.171Z,101694.25
2022-08-29T03:37:08.704Z,101696.78
2022-08-29T03:39:38.857Z,101697.06
2022-08-29T03:42:08.661Z,101696.69
2022-08-29T03:44:39.636Z,101686.38
2022-08-29T03:47:09.425Z,101693.78
2022-08-29T03:49:39.303Z,101689.06
2022-08-29T03:52:10.026Z,101687.00
2022-08-29T03:54:39.341Z,101698.00
2022-08-29T03:57:09.446Z,101691.34
2022-08-29T03:59:38.813Z,101691.06
2022-08-29T04:02:07.901Z,101693.03
2022-08-29T04:04:54.549Z,101705.97
2022-08-29T04:07:25.038Z,101711.50
2022-08-29T04:09:54.264Z,101710.53
2022-08-29T04:12:23.322Z,101714.56
2022-08-29T04:14:52.615Z,101717.38
2022-08-29T04:17:21.722Z,101721.28
2022-08-29T04:19:50.829Z,101720.28
2022-08-29T04:22:19.873Z,101728.94
2022-08-29T04:24:50.335Z,101725.03
2022-08-29T04:27:19.406Z,101732.72
2022-08-29T04:29:48.935Z,101729.53
2022-08-29T04:32:18.105Z,101731.63
2022-08-29T04:34:47.273Z,101733.28
2022-08-29T04:37:16.272Z,101739.28
2022-08-29T04:39:45.509Z,101746.91
2022-08-29T04:42:20.189Z,101749.00
2022-08-29T04:44:49.984Z,101747.16
2022-08-29T04:47:21.618Z,101746.75
2022-08-29T04:49:56.294Z,101748.97
2022-08-29T04:52:27.523Z,101748.28
2022-08-29T04:54:57.142Z,101744.94
2022-08-29T04:57:27.706Z,101757.44
2022-08-29T04:59:58.767Z,101762.31
2022-08-29T05:02:29.507Z,101754.38
2022-08-29T05:04:58.789Z,101753.13
2022-08-29T05:07:28.741Z,101751.44
2022-08-29T05:10:00.246Z,101760.53
2022-08-29T05:12:33.650Z,101758.97
2022-08-29T05:15:02.949Z,101764.44
2022-08-29T05:17:32.199Z,101762.03
2022-08-29T05:20:02.806Z,101766.78
2022-08-29T05:22:31.902Z,101759.09
2022-08-29T05:25:00.993Z,101757.56
2022-08-29T05:27:31.766Z,101762.00
2022-08-29T05:30:01.852Z,101762.03
2022-08-29T05:32:30.889Z,101778.03
2022-08-29T05:35:00.245Z,101768.72
2022-08-29T05:37:29.520Z,101770.50
2022-08-29T05:39:58.779Z,101782.06
2022-08-29T05:42:28.706Z,101781.81
2022-08-29T05:44:59.030Z,101788.31
2022-08-29T05:47:28.058Z,101793.59
2022-08-29T05:49:57.123Z,101785.22
2022-08-29T05:52:26.817Z,101783.72
2022-08-29T05:54:56.134Z,101781.41
2022-08-29T05:57:25.777Z,101784.19
2022-08-29T05:59:55.961Z,101777.50
2022-08-29T06:02:26.823Z,101779.66
2022-08-29T06:04:57.096Z,101777.94
2022-08-29T06:07:26.155Z,101781.22
2022-08-29T06:09:55.329Z,101780.06
2022-08-29T06:12:32.607Z,101778.22
2022-08-29T06:15:01.901Z,101786.72
2022-08-29T06:17:32.425Z,101786.28
2022-08-29T06:20:01.466Z,101795.47
2022-08-29T06:22:31.021Z,101793.38
2022-08-29T06:25:06.233Z,101797.25
2022-08-29T06:27:45.714Z,101796.69
2022-08-29T06:30:15.338Z,101789.88
2022-08-29T06:32:45.901Z,101790.88
2022-08-29T06:35:14.893Z,101800.44
2022-08-29T06:37:43.936Z,101805.13
2022-08-29T06:40:13.699Z,101815.44
2022-08-29T06:42:42.828Z,101815.63
2022-08-29T06:45:13.074Z,101817.06
2022-08-29T06:47:42.246Z,101814.63
2022-08-29T06:50:13.057Z,101822.06
2022-08-29T06:52:42.255Z,101812.88
2022-08-29T06:55:12.907Z,101816.50
2022-08-29T06:57:45.829Z,101823.09
2022-08-29T07:00:21.594Z,101816.34
2022-08-29T07:02:52.755Z,101820.13
2022-08-29T07:05:25.683Z,101817.22
2022-08-29T07:07:54.903Z,101808.97
2022-08-29T07:10:24.103Z,101814.88
2022-08-29T07:12:53.933Z,101816.31
2022-08-29T07:15:24.685Z,101813.41
2022-08-29T07:17:59.251Z,101823.63
2022-08-29T07:20:30.368Z,101813.75
2022-08-29T07:22:59.330Z,101818.31
2022-08-29T07:25:28.621Z,101823.91
2022-08-29T07:27:57.778Z,101818.66
2022-08-29T07:30:28.078Z,101821.25
2022-08-29T07:32:57.234Z,101826.03
2022-08-29T07:35:31.218Z,101822.31
2022-08-29T07:38:04.447Z,101830.03
2022-08-29T07:40:33.586Z,101831.59
2022-08-29T07:43:05.079Z,101833.09
2022-08-29T07:45:34.419Z,101829.19
2022-08-29T07:48:04.127Z,101822.53
2022-08-29T07:50:42.251Z,101822.34
2022-08-29T07:53:12.633Z,101825.53
2022-08-29T07:55:41.861Z,101814.50
2022-08-29T07:58:11.172Z,101822.03
2022-08-29T08:00:40.308Z,101818.28
2022-08-29T08:03:10.971Z,101828.41
2022-08-29T08:05:40.042Z,101824.25
2022-08-29T08:08:15.682Z,101829.03
2022-08-29T08:10:51.344Z,101836.53
2022-08-29T08:13:21.770Z,101844.13
2022-08-29T08:15:50.794Z,101840.00
2022-08-29T08:18:19.827Z,101846.81
2022-08-29T08:20:49.228Z,101848.31
2022-08-29T08:23:19.694Z,101847.59
2022-08-29T08:25:50.622Z,101849.16
2022-08-29T08:28:19.735Z,101846.69
2022-08-29T08:30:48.867Z,101859.28
2022-08-29T08:33:17.930Z,101850.84
2022-08-29T08:35:47.254Z,101854.28
2022-08-29T08:38:16.988Z,101845.72
2022-08-29T08:40:56.974Z,101863.81
2022-08-29T08:43:35.582Z,101856.28
2022-08-29T08:46:04.890Z,101867.00
2022-08-29T08:48:39.998Z,101860.78
2022-08-29T08:51:16.154Z,101862.44
2022-08-29T08:53:48.832Z,101863.31
2022-08-29T08:56:30.437Z,101860.31
2022-08-29T08:59:06.640Z,101862.78
2022-08-29T09:01:39.105Z,101857.50
2022-08-29T09:04:25.460Z,101857.38
2022-08-29T09:07:09.702Z,101857.69
2022-08-29T09:09:52.463Z,101851.84
2022-08-29T09:12:36.130Z,101854.69
2022-08-29T09:15:13.762Z,101860.84
2022-08-29T09:17:48.092Z,101863.31
2022-08-29T09:20:20.012Z,101867.50
2022-08-29T09:22:59.200Z,101870.47
2022-08-29T09:25:30.135Z,101867.34
2022-08-29T09:28:00.661Z,101867.16
2022-08-29T09:30:33.453Z,101862.81
2022-08-29T09:33:04.533Z,101864.66
2022-08-29T09:35:39.711Z,101866.81
2022-08-29T09:38:11.581Z,101859.19
2022-08-29T09:40:48.967Z,101854.63
2022-08-29T09:43:23.667Z,101863.50
2022-08-29T09:46:23.112Z,101863.34
2022-08-29T09:48:54.000Z,101869.03
2022-08-29T09:51:28.318Z,101869.84
2022-08-29T09:54:14.097Z,101882.66
2022-08-29T09:56:51.746Z,101868.16
2022-08-29T09:59:27.889Z,101880.81
2022-08-29T10:02:19.560Z,101882.16
2022-08-29T10:04:51.683Z,101877.53
2022-08-29T10:07:25.640Z,101883.13
2022-08-29T10:10:00.831Z,101880.84
2022-08-29T10:12:46.895Z,101875.47
2022-08-29T10:15:46.900Z,101875.50
2022-08-29T10:18:25.010Z,101891.66
2022-08-29T10:21:07.935Z,101891.28
2022-08-29T10:23:46.822Z,101888.63
2022-08-29T10:26:31.030Z,101901.34
2022-08-29T10:29:09.250Z,101903.50
2022-08-29T10:31:45.650Z,101899.81
2022-08-29T10:34:33.035Z,101896.66
2022-08-29T10:37:05.924Z,101898.81
2022-08-29T10:39:42.525Z,101892.97
2022-08-29T10:42:16.481Z,101900.31
2022-08-29T10:44:55.435Z,101889.81
2022-08-29T10:47:34.196Z,101890.00
2022-08-29T10:50:27.616Z,101888.47
2022-08-29T10:53:08.427Z,101891.41
2022-08-29T10:55:46.144Z,101891.00
2022-08-29T10:58:27.193Z,101900.25
2022-08-29T11:01:08.485Z,101897.78
2022-08-29T11:03:47.488Z,101902.16
2022-08-29T11:06:22.349Z,101907.34
2022-08-29T11:08:59.501Z,101898.66
2022-08-29T11:11:30.943Z,101902.84
2022-08-29T11:14:07.287Z,101905.63
2022-08-29T11:16:39.605Z,101909.13
2022-08-29T11:19:22.115Z,101906.84
2022-08-29T11:21:57.741Z,101901.13
2022-08-29T11:24:34.560Z,101903.66
2022-08-29T11:27:12.714Z,101900.00
2022-08-29T11:29:49.779Z,101901.09
2022-08-29T11:32:27.326Z,101906.16
2022-08-29T11:35:08.974Z,101909.31
2022-08-29T11:38:13.756Z,101905.31
2022-08-29T11:44:08.803Z,101909.19
2022-08-29T11:46:41.782Z,101910.38
2022-08-29T11:49:38.092Z,101906.25
2022-08-29T11:52:22.811Z,101927.31
2022-08-29T11:55:16.073Z,101920.19
2022-08-29T11:57:52.168Z,101921.00
2022-08-29T12:00:37.579Z,101926.50
2022-08-29T12:03:30.388Z,101923.31
2022-08-29T12:06:02.757Z,101926.81
2022-08-29T12:08:40.769Z,101926.47
2022-08-29T12:11:09.969Z,101930.50
2022-08-29T12:14:01.451Z,101937.66
2022-08-29T12:16:50.280Z,101934.31
2022-08-29T12:19:48.768Z,101933.31
2022-08-29T12:22:55.176Z,101941.88
2022-08-29T12:26:03.891Z,101952.50
2022-08-29T12:28:48.337Z,101945.56
2022-08-29T12:32:02.328Z,101945.50
2022-08-29T12:34:51.156Z,101948.28
2022-08-29T12:37:33.975Z,101958.63
2022-08-29T12:40:29.386Z,101959.63
2022-08-29T12:43:31.902Z,101965.66
2022-08-29T12:46:02.942Z,101957.31
2022-08-29T12:48:40.144Z,101962.22
2022-08-29T12:51:09.608Z,101959.44
2022-08-29T12:53:38.937Z,101958.84
2022-08-29T12:56:18.156Z,101965.13
2022-08-29T12:58:56.857Z,101955.34
2022-08-29T13:01:31.333Z,101951.38
2022-08-29T13:04:05.228Z,101955.84
2022-08-29T13:06:35.541Z,101952.69
2022-08-29T13:09:06.056Z,101947.22
2022-08-29T13:11:35.960Z,101948.56
2022-08-29T13:14:08.994Z,101948.09
2022-08-29T13:16:40.049Z,101947.94
2022-08-29T13:19:20.698Z,101945.28
2022-08-29T13:21:50.057Z,101943.97
2022-08-29T13:24:21.666Z,101948.44
2022-08-29T13:27:05.371Z,101948.38
2022-08-29T13:29:39.804Z,101956.03
2022-08-29T13:32:27.414Z,101957.50
2022-08-29T13:35:08.770Z,101960.16
2022-08-29T13:37:40.389Z,101957.47
2022-08-29T13:40:33.047Z,101960.78
2022-08-29T13:43:03.161Z,101961.28
2022-08-29T13:45:34.382Z,101956.50
2022-08-29T13:48:20.248Z,101956.50
2022-08-29T13:50:49.330Z,101952.47
2022-08-29T13:53:19.203Z,101961.94
2022-08-29T13:55:48.473Z,101955.94
2022-08-29T13:58:22.449Z,101961.19
2022-08-29T14:00:53.055Z,101950.22
2022-08-29T14:03:23.595Z,101944.25
2022-08-29T14:05:56.388Z,101948.56
2022-08-29T14:08:26.016Z,101937.78
2022-08-29T14:10:55.173Z,101931.78
2022-08-29T14:13:24.306Z,101945.19
2022-08-29T14:15:54.778Z,101936.06
2022-08-29T14:18:23.862Z,101940.63
2022-08-29T14:20:52.974Z,101926.97
2022-08-29T14:23:23.340Z,101925.16
2022-08-29T14:25:52.569Z,101929.16
2022-08-29T14:28:21.797Z,101933.84
2022-08-29T14:30:52.147Z,101923.78
2022-08-29T14:33:23.619Z,101933.72
2022-08-29T14:35:53.169Z,101933.19
2022-08-29T14:38:22.375Z,101925.81
2022-08-29T14:40:51.708Z,101914.31
2022-08-29T14:43:20.900Z,101931.06
2022-08-29T14:45:51.331Z,101930.34
2022-08-29T14:48:22.100Z,101940.22
2022-08-29T14:51:03.178Z,101935.59
2022-08-29T14:53:37.389Z,101935.34
2022-08-29T14:56:37.244Z,101933.50
2022-08-29T14:59:05.738Z,101928.59
2022-08-29T15:01:35.179Z,101940.81
2022-08-29T15:04:05.777Z,101930.59
2022-08-29T15:06:36.182Z,101938.31
2022-08-29T15:09:05.801Z,101933.47
2022-08-29T15:11:35.118Z,101937.75
2022-08-29T15:14:04.845Z,101941.47
2022-08-29T15:16:33.961Z,101938.88
2022-08-29T15:21:53.521Z,101945.28
2022-08-29T15:24:25.352Z,101939.78
2022-08-29T15:26:57.950Z,101938.88
2022-08-29T15:29:27.343Z,101942.13
2022-08-29T15:31:57.448Z,101943.31
2022-08-29T15:34:29.679Z,101941.34
2022-08-29T15:36:59.611Z,101938.31
2022-08-29T15:39:29.726Z,101940.94
2022-08-29T15:42:01.329Z,101948.00
2022-08-29T15:44:31.146Z,101941.50
2022-08-29T15:47:00.467Z,101945.47
2022-08-29T15:49:32.388Z,101939.66
2022-08-29T15:52:01.688Z,101933.25
2022-08-29T15:54:30.990Z,101935.66
2022-08-29T15:57:00.097Z,101930.34
2022-08-29T15:59:56.155Z,101934.81
2022-08-29T16:02:18.738Z,101933.94
2022-08-29T16:04:53.675Z,101932.44
2022-08-29T16:07:28.692Z,101927.72
2022-08-29T16:10:00.127Z,101933.34
2022-08-29T16:12:30.936Z,101938.69
2022-08-29T16:15:01.318Z,101931.41
2022-08-29T16:17:31.644Z,101932.38
2022-08-29T16:20:03.203Z,101937.91
2022-08-29T16:22:33.883Z,101951.34
2022-08-29T16:25:03.014Z,101950.59
2022-08-29T16:27:32.256Z,101954.94
2022-08-29T16:30:01.415Z,101948.31
2022-08-29T16:32:31.299Z,101945.22
2022-08-29T16:35:01.877Z,101941.22
2022-08-29T16:37:31.065Z,101946.19
2022-08-29T16:40:01.685Z,101949.50
2022-08-29T16:42:31.066Z,101946.97
2022-08-29T16:45:00.858Z,101945.34
2022-08-29T16:47:31.406Z,101943.66
2022-08-29T16:50:03.456Z,101942.22
2022-08-29T16:52:33.566Z,101949.16
2022-08-29T16:55:04.467Z,101951.88
2022-08-29T16:57:35.000Z,101950.53
2022-08-29T17:00:05.694Z,101954.03
2022-08-29T17:02:39.952Z,101949.09
2022-08-29T17:05:12.545Z,101949.72
2022-08-29T17:07:41.265Z,101941.75
2022-08-29T17:10:10.467Z,101939.31
2022-08-29T17:12:39.503Z,101936.66
2022-08-29T17:15:09.022Z,101938.38
2022-08-29T17:17:40.930Z,101935.41
2022-08-29T17:20:13.959Z,101933.00
2022-08-29T17:22:43.838Z,101933.09
2022-08-29T17:25:14.807Z,101938.25
2022-08-29T17:28:00.985Z,101942.81
2022-08-29T17:30:34.714Z,101942.47
2022-08-29T17:33:04.177Z,101940.06
2022-08-29T17:35:34.983Z,101935.88
2022-08-29T17:38:04.603Z,101940.34
2022-08-29T17:40:34.961Z,101943.25
2022-08-29T17:43:05.627Z,101948.09
2022-08-29T17:45:35.958Z,101945.41
2022-08-29T17:48:05.903Z,101941.97
2022-08-29T17:50:37.669Z,101946.72
2022-08-29T17:53:07.061Z,101948.84
2022-08-29T17:55:36.613Z,101942.88
2022-08-29T17:58:06.036Z,101941.50
2022-08-29T18:00:36.236Z,101948.31
2022-08-29T18:03:05.547Z,101945.00
2022-08-29T18:05:35.998Z,101954.38
2022-08-29T18:08:06.051Z,101953.00
2022-08-29T18:10:36.866Z,101945.72
2022-08-29T18:13:06.068Z,101942.25
2022-08-29T18:15:36.237Z,101945.50
2022-08-29T18:18:06.524Z,101948.31
2022-08-29T18:20:41.084Z,101953.88
2022-08-29T18:23:10.494Z,101953.06
2022-08-29T18:25:39.778Z,101960.19
2022-08-29T18:28:09.540Z,101957.13
2022-08-29T18:30:38.885Z,101956.81
2022-08-29T18:33:08.742Z,101952.91
2022-08-29T18:35:39.424Z,101958.69
2022-08-29T18:38:09.570Z,101967.72
2022-08-29T18:40:40.041Z,101965.22
2022-08-29T18:43:11.209Z,101969.53
2022-08-29T18:45:42.869Z,101971.56
2022-08-29T18:48:12.389Z,101984.81
2022-08-29T18:50:43.968Z,101982.47
2022-08-29T18:53:15.653Z,101986.22
2022-08-29T18:55:50.969Z,101996.84
2022-08-29T18:58:23.840Z,102003.53
2022-08-29T19:00:53.764Z,102005.50
2022-08-29T19:03:24.266Z,102007.31
2022-08-29T19:05:54.858Z,102005.81
2022-08-29T19:08:25.551Z,102004.13
2022-08-29T19:10:56.067Z,102001.66
2022-08-29T19:13:26.453Z,102007.69
2022-08-29T19:16:00.573Z,102007.56
2022-08-29T19:18:30.180Z,102006.09
2022-08-29T19:21:02.404Z,102005.38
2022-08-29T19:23:32.758Z,102003.84
2022-08-29T19:26:03.471Z,101996.69
2022-08-29T19:28:33.009Z,101994.19
2022-08-29T19:31:02.966Z,101992.25
2022-08-29T19:33:32.064Z,101999.91
2022-08-29T19:36:03.094Z,101997.81
2022-08-29T19:38:32.492Z,102002.66
2022-08-29T19:41:02.112Z,102011.41
2022-08-29T19:43:33.349Z,102009.44
2022-08-29T19:46:03.870Z,102010.44
2022-08-29T19:48:33.134Z,102000.78
2022-08-29T19:51:08.417Z,102006.25
2022-08-29T19:53:41.314Z,102004.38
2022-08-29T19:56:12.005Z,101998.13
2022-08-29T19:58:41.905Z,101998.69
2022-08-29T20:01:11.617Z,101997.84
2022-08-29T20:03:42.717Z,101997.47
2022-08-29T20:06:13.244Z,101990.78
2022-08-29T20:08:45.469Z,101995.38
2022-08-29T20:11:16.436Z,101995.41
2022-08-29T20:13:51.405Z,101994.97
2022-08-29T20:16:23.442Z,101997.09
2022-08-29T20:18:53.400Z,101997.78
2022-08-29T20:21:24.774Z,102000.16
2022-08-29T20:23:58.001Z,101992.63
2022-08-29T20:26:30.281Z,102001.72
2022-08-29T20:29:01.725Z,102002.94
2022-08-29T20:31:31.051Z,102008.53
2022-08-29T20:34:00.722Z,102011.03
2022-08-29T20:36:49.047Z,102005.75
2022-08-29T20:39:20.958Z,102010.31
2022-08-29T20:41:51.283Z,102023.16
2022-08-29T20:44:21.742Z,102016.78
2022-08-29T20:46:52.106Z,102017.59
2022-08-29T20:49:22.944Z,102017.75
2022-08-29T20:51:53.900Z,102018.84
2022-08-29T20:54:24.988Z,102015.78
2022-08-29T20:56:54.486Z,102019.13
2022-08-29T20:59:26.630Z,102015.63
2022-08-29T21:01:56.557Z,102022.00
2022-08-29T21:04:43.386Z,102016.59
2022-08-29T21:07:15.814Z,102019.78
2022-08-29T21:09:46.955Z,102023.69
2022-08-29T21:12:17.320Z,102022.13
2022-08-29T21:14:47.388Z,102021.72
2022-08-29T21:17:18.070Z,102022.69
2022-08-29T21:19:47.458Z,102025.34
2022-08-29T21:22:20.717Z,102021.16
2022-08-29T21:24:54.948Z,102022.00
2022-08-29T21:27:24.350Z,102016.72
2022-08-29T21:29:56.972Z,102015.31
2022-08-29T21:32:26.024Z,102014.47
2022-08-29T21:34:55.272Z,102016.66
2022-08-29T21:37:26.169Z,102020.16
2022-08-29T21:39:55.408Z,102019.88
2022-08-29T21:42:25.368Z,102021.38
2022-08-29T21:44:56.613Z,102019.06
2022-08-29T21:47:25.938Z,102014.69
2022-08-29T21:49:55.000Z,102019.97
2022-08-29T21:52:25.670Z,102020.19
2022-08-29T21:54:54.967Z,102020.00
2022-08-29T21:57:41.787Z,102018.84
2022-08-29T22:00:12.410Z,102030.19
2022-08-29T22:02:42.204Z,102022.47
2022-08-29T22:05:11.626Z,102028.31
2022-08-29T22:07:43.055Z,102034.03
2022-08-29T22:10:15.236Z,102031.81
2022-08-29T22:12:44.794Z,102027.94
2022-08-29T22:15:33.436Z,102026.41
2022-08-29T22:18:02.838Z,102030.19
2022-08-29T22:20:32.290Z,102025.88
2022-08-29T22:23:02.784Z,102031.88
2022-08-29T22:25:32.237Z,102032.84
2022-08-29T22:28:01.479Z,102030.53
2022-08-29T22:30:32.316Z,102033.59
2022-08-29T22:33:02.078Z,102020.97
2022-08-29T22:35:31.398Z,102028.31
2022-08-29T22:38:02.476Z,102036.97
2022-08-29T22:40:32.467Z,102028.50
2022-08-29T22:43:01.779Z,102024.19
2022-08-29T22:45:31.653Z,102031.69
2022-08-29T22:48:00.914Z,102020.47
2022-08-29T22:50:30.225Z,102015.63
2022-08-29T22:53:01.875Z,102020.19
2022-08-29T22:55:33.129Z,102021.16
2022-08-29T22:58:02.655Z,102021.88
2022-08-29T23:00:32.717Z,102023.56
2022-08-29T23:03:03.231Z,102020.31
2022-08-29T23:05:32.723Z,102026.72
2022-08-29T23:08:01.835Z,102026.13
2022-08-29T23:10:32.360Z,102025.59
2022-08-29T23:13:01.576Z,102019.72
2022-08-29T23:15:30.846Z,102023.22
2022-08-29T23:18:02.261Z,102023.50
2022-08-29T23:20:31.557Z,102020.28
2022-08-29T23:23:01.059Z,102025.16
2022-08-29T23:25:31.624Z,102025.56
2022-08-29T23:28:01.030Z,102025.41
2022-08-29T23:30:30.181Z,102023.09
2022-08-29T23:33:00.384Z,102018.47
2022-08-29T23:35:29.888Z,102024.44
2022-08-29T23:37:59.052Z,102023.59
2022-08-29T23:40:28.638Z,102028.06
2022-08-29T23:42:59.554Z,102022.75
2022-08-29T23:45:28.719Z,102032.66
2022-08-29T23:47:57.847Z,102024.59
2022-08-29T23:50:27.013Z,102025.41
2022-08-29T23:52:56.327Z,102032.66
2022-08-29T23:55:25.641Z,102036.53
2022-08-29T23:57:55.020Z,102034.72
